Time;durP1;ratioP1;P1;durP2;ratioP2;P2;SDS_P1;SDS_P2;PMS_P1;PMS_P2;Temp;Humidity;BMP_temperature;BMP_pressure;BME280_temperature;BME280_humidity;BME280_pressure;Samples;Min_cycle;Max_cycle;Signal;HPM_P1;HPM_P2
2021/06/10 00:00:21;;;;;;;1.80;1.70;;;15.80;99.90;;;;;;4877236;29;20444;-79
2021/06/10 00:02:47;;;;;;;1.97;1.80;;;15.80;99.90;;;;;;4908977;29;20405;-78
2021/06/10 00:05:13;;;;;;;1.70;1.60;;;15.80;99.90;;;;;;4883108;29;21518;-79
2021/06/10 00:07:39;;;;;;;1.50;1.40;;;15.80;99.90;;;;;;4875995;29;20430;-78
2021/06/10 00:10:10;;;;;;;2.00;1.67;;;15.70;99.90;;;;;;4881269;29;20462;-79
2021/06/10 00:12:36;;;;;;;1.60;1.50;;;15.60;99.90;;;;;;4911524;29;20399;-78
2021/06/10 00:15:01;;;;;;;1.50;1.40;;;15.50;99.90;;;;;;4881492;29;20778;-79
2021/06/10 00:17:27;;;;;;;3.50;1.80;;;15.50;99.90;;;;;;4880442;29;20489;-79
2021/06/10 00:19:53;;;;;;;1.67;1.57;;;15.50;99.90;;;;;;4912432;29;20423;-79
2021/06/10 00:22:19;;;;;;;1.70;1.60;;;15.40;99.90;;;;;;4910594;29;20399;-83
2021/06/10 00:24:45;;;;;;;1.80;1.70;;;15.30;99.90;;;;;;4895961;29;20578;-79
2021/06/10 00:27:11;;;;;;;1.90;1.80;;;15.30;99.90;;;;;;4862761;29;20411;-78
2021/06/10 00:29:37;;;;;;;1.97;1.87;;;15.30;99.90;;;;;;4896024;29;20913;-82
2021/06/10 00:32:02;;;;;;;1.60;1.50;;;15.30;99.90;;;;;;4912126;29;21170;-79
2021/06/10 00:34:28;;;;;;;1.80;1.70;;;15.20;99.90;;;;;;4909114;29;20908;-78
2021/06/10 00:36:54;;;;;;;2.00;1.90;;;15.20;99.90;;;;;;4912306;29;20395;-79
2021/06/10 00:39:19;;;;;;;2.20;2.00;;;15.10;99.90;;;;;;4896661;29;20742;-79
2021/06/10 00:41:45;;;;;;;2.03;1.92;;;15.10;99.90;;;;;;4890401;29;20415;-79
2021/06/10 00:44:11;;;;;;;2.00;1.90;;;15.10;99.90;;;;;;4894885;29;20495;-80
2021/06/10 00:46:36;;;;;;;1.77;1.67;;;15.10;99.90;;;;;;4848039;29;20426;-79
2021/06/10 00:49:02;;;;;;;1.80;1.70;;;15.00;99.90;;;;;;4880093;29;20410;-80
2021/06/10 00:51:28;;;;;;;2.30;2.10;;;15.00;99.90;;;;;;4894966;29;20418;-79
2021/06/10 00:53:55;;;;;;;1.75;1.65;;;14.90;99.90;;;;;;4894111;29;20407;-80
2021/06/10 00:56:21;;;;;;;1.80;1.70;;;14.80;99.90;;;;;;4912459;29;20407;-79
2021/06/10 00:58:46;;;;;;;2.00;1.90;;;14.90;99.90;;;;;;4880546;29;20662;-80
2021/06/10 01:01:12;;;;;;;1.98;1.88;;;14.80;99.90;;;;;;4910841;29;20506;-83
2021/06/10 01:03:38;;;;;;;2.00;1.90;;;14.80;99.90;;;;;;4880335;29;20399;-78
2021/06/10 01:06:08;;;;;;;2.03;1.92;;;14.80;99.90;;;;;;4880812;29;20411;-78
2021/06/10 01:08:50;;;;;;;2.03;1.92;;;14.80;99.90;;;;;;4879970;29;20403;-78
2021/06/10 01:11:21;;;;;;;2.50;2.30;;;14.70;99.90;;;;;;4907475;29;20406;-78
2021/06/10 01:14:09;;;;;;;1.88;1.77;;;14.70;99.90;;;;;;4894235;29;20402;-80
2021/06/10 01:16:36;;;;;;;2.00;1.90;;;14.70;99.90;;;;;;4892439;29;20781;-81
2021/06/10 01:19:22;;;;;;;2.10;2.00;;;14.70;99.90;;;;;;4880533;29;20836;-79
2021/06/10 01:21:47;;;;;;;2.13;2.03;;;14.60;99.90;;;;;;4879399;29;20411;-78
2021/06/10 01:24:38;;;;;;;2.00;1.90;;;14.70;99.90;;;;;;4880582;29;20506;-78
2021/06/10 01:27:26;;;;;;;2.45;2.28;;;14.60;99.90;;;;;;4879529;29;20482;-80
2021/06/10 01:30:02;;;;;;;3.70;2.00;;;14.60;99.90;;;;;;4894601;29;20415;-80
2021/06/10 01:32:28;;;;;;;2.22;2.13;;;14.50;99.90;;;;;;4893329;29;20814;-80
2021/06/10 01:34:54;;;;;;;1.90;1.80;;;14.60;99.90;;;;;;4911207;29;20418;-78
2021/06/10 01:37:19;;;;;;;2.33;2.17;;;14.50;99.90;;;;;;4911049;29;20398;-81
2021/06/10 01:39:45;;;;;;;2.20;2.10;;;14.60;99.90;;;;;;4895185;29;20484;-79
2021/06/10 01:42:11;;;;;;;2.53;2.33;;;14.60;99.90;;;;;;4910380;29;20433;-83
2021/06/10 01:44:38;;;;;;;2.40;2.30;;;14.50;99.90;;;;;;4893646;29;20420;-78
2021/06/10 01:47:04;;;;;;;3.30;2.20;;;14.40;99.90;;;;;;4876728;29;20916;-78
2021/06/10 01:49:29;;;;;;;2.60;2.40;;;14.40;99.90;;;;;;4895420;29;20458;-82
2021/06/10 01:51:55;;;;;;;2.50;2.30;;;14.30;99.90;;;;;;4880538;29;20411;-81
2021/06/10 01:54:21;;;;;;;2.27;2.10;;;14.30;99.90;;;;;;4861148;29;20760;-79
2021/06/10 01:56:46;;;;;;;2.45;2.25;;;14.20;99.90;;;;;;4911370;29;20397;-79
2021/06/10 01:59:12;;;;;;;2.20;2.10;;;14.20;99.90;;;;;;4880882;29;20435;-79
2021/06/10 02:01:38;;;;;;;2.35;2.22;;;14.20;99.90;;;;;;4879273;29;20418;-83
2021/06/10 02:04:04;;;;;;;2.45;2.25;;;14.20;99.90;;;;;;4878846;29;20964;-80
2021/06/10 02:06:31;;;;;;;3.03;2.83;;;14.20;99.90;;;;;;4886307;29;20451;-78
2021/06/10 02:08:56;;;;;;;2.55;2.35;;;14.20;99.90;;;;;;4880692;29;20438;-79
2021/06/10 02:11:22;;;;;;;2.50;2.30;;;14.20;99.90;;;;;;4879871;29;20820;-79
2021/06/10 02:13:48;;;;;;;2.35;2.13;;;14.20;99.90;;;;;;4893341;29;20419;-79
2021/06/10 02:16:14;;;;;;;2.28;2.15;;;14.20;99.90;;;;;;4891173;29;20903;-79
2021/06/10 02:18:40;;;;;;;5.10;2.43;;;14.20;99.90;;;;;;4912069;29;20438;-78
2021/06/10 02:21:08;;;;;;;2.40;2.20;;;14.10;99.90;;;;;;4926692;29;20414;-80
2021/06/10 02:23:38;;;;;;;2.85;2.65;;;14.10;99.90;;;;;;4926484;29;20426;-82
2021/06/10 02:26:04;;;;;;;2.40;2.20;;;14.00;99.90;;;;;;4864729;29;21069;-82
2021/06/10 02:28:31;;;;;;;2.67;2.47;;;14.00;99.90;;;;;;4894873;29;20426;-80
2021/06/10 02:30:57;;;;;;;2.45;2.25;;;14.00;99.90;;;;;;4879264;29;20924;-80
2021/06/10 02:33:23;;;;;;;2.20;2.10;;;14.10;99.90;;;;;;4880387;29;20472;-81
2021/06/10 02:35:48;;;;;;;2.80;2.60;;;14.10;99.90;;;;;;4887529;29;20490;-78
2021/06/10 02:38:15;;;;;;;2.30;2.20;;;14.10;99.90;;;;;;4910583;29;20418;-79
2021/06/10 02:40:46;;;;;;;2.70;2.50;;;14.00;99.90;;;;;;4895953;29;20411;-79
2021/06/10 02:43:11;;;;;;;2.60;2.40;;;13.90;99.90;;;;;;4890741;29;20420;-78
2021/06/10 02:45:38;;;;;;;3.27;2.73;;;13.90;99.90;;;;;;4907981;29;20415;-79
2021/06/10 02:48:04;;;;;;;2.47;2.38;;;13.80;99.90;;;;;;4894726;29;21044;-79
2021/06/10 02:50:30;;;;;;;3.00;2.70;;;13.70;99.90;;;;;;4861577;29;20407;-79
2021/06/10 02:52:56;;;;;;;2.70;2.50;;;13.80;99.90;;;;;;4893180;29;20437;-78
2021/06/10 02:55:21;;;;;;;2.60;2.40;;;13.80;99.90;;;;;;4864001;29;20478;-79
2021/06/10 02:57:55;;;;;;;2.70;2.50;;;13.80;99.90;;;;;;4912012;29;20410;-80
2021/06/10 03:00:22;;;;;;;2.40;2.20;;;13.80;99.90;;;;;;4896284;29;20407;-80
2021/06/10 03:02:51;;;;;;;2.78;2.58;;;13.80;99.90;;;;;;4895277;29;20838;-79
2021/06/10 03:05:17;;;;;;;2.50;2.30;;;13.80;99.90;;;;;;4881713;29;20857;-82
2021/06/10 03:07:43;;;;;;;3.00;2.80;;;13.80;99.90;;;;;;4913807;29;20411;-79
2021/06/10 03:10:09;;;;;;;2.58;2.38;;;13.80;99.90;;;;;;4869457;29;20915;-80
2021/06/10 03:12:35;;;;;;;4.18;2.30;;;13.80;99.90;;;;;;4911163;29;20438;-81
2021/06/10 03:15:01;;;;;;;2.50;2.30;;;13.80;99.90;;;;;;4883072;29;20415;-79
2021/06/10 03:17:27;;;;;;;3.17;2.50;;;13.90;99.90;;;;;;4914929;29;20422;-80
2021/06/10 03:19:52;;;;;;;2.33;2.22;;;13.90;99.90;;;;;;4898562;29;20490;-78
2021/06/10 03:22:18;;;;;;;3.00;2.70;;;13.90;99.90;;;;;;4882137;29;20414;-80
2021/06/10 03:24:44;;;;;;;2.60;2.40;;;14.00;99.90;;;;;;4925605;29;20436;-79
2021/06/10 03:27:09;;;;;;;2.40;2.30;;;14.00;99.90;;;;;;4882581;29;20958;-83
2021/06/10 03:29:35;;;;;;;2.60;2.40;;;14.10;99.90;;;;;;4898820;29;20399;-79
2021/06/10 03:32:01;;;;;;;2.40;2.20;;;14.10;99.90;;;;;;4896784;29;20407;-83
2021/06/10 03:34:28;;;;;;;3.58;2.22;;;14.10;99.90;;;;;;4897247;29;20477;-82
2021/06/10 03:36:54;;;;;;;3.75;2.35;;;14.20;99.90;;;;;;4914239;29;20490;-81
2021/06/10 03:39:20;;;;;;;2.55;2.35;;;14.30;99.90;;;;;;4882654;29;20403;-80
2021/06/10 03:41:45;;;;;;;2.40;2.20;;;14.30;99.90;;;;;;4881633;29;20417;-81
2021/06/10 03:44:11;;;;;;;2.80;2.50;;;14.40;99.90;;;;;;4913242;29;20501;-81
2021/06/10 03:46:40;;;;;;;2.65;2.30;;;14.60;99.90;;;;;;4896102;29;20430;-81
2021/06/10 03:49:05;;;;;;;2.33;2.13;;;14.60;99.90;;;;;;4866863;29;20411;-78
2021/06/10 03:51:31;;;;;;;2.10;2.00;;;14.70;99.90;;;;;;4890981;29;20414;-83
2021/06/10 03:53:56;;;;;;;2.20;2.10;;;14.80;99.90;;;;;;4910966;29;20853;-81
2021/06/10 03:56:22;;;;;;;2.53;2.33;;;14.90;99.90;;;;;;4898126;29;20486;-79
2021/06/10 03:58:48;;;;;;;2.30;2.10;;;15.00;99.90;;;;;;4911493;29;20477;-79
2021/06/10 04:01:13;;;;;;;2.40;2.23;;;15.10;99.90;;;;;;4880541;29;20411;-79
2021/06/10 04:03:40;;;;;;;2.10;2.00;;;15.30;99.90;;;;;;4908924;29;20407;-78
2021/06/10 04:06:05;;;;;;;2.63;2.42;;;15.40;99.90;;;;;;4880849;29;20449;-79
2021/06/10 04:08:31;;;;;;;2.33;2.17;;;15.60;99.90;;;;;;4880686;29;20443;-82
2021/06/10 04:10:57;;;;;;;2.40;2.22;;;15.80;99.90;;;;;;4878256;29;20404;-78
2021/06/10 04:13:22;;;;;;;2.10;2.00;;;15.90;99.90;;;;;;4910100;29;20426;-80
2021/06/10 04:15:48;;;;;;;2.53;2.33;;;16.10;99.90;;;;;;4906287;29;20420;-80
2021/06/10 04:18:18;;;;;;;2.53;2.33;;;16.20;99.90;;;;;;4891469;29;20892;-79
2021/06/10 04:20:47;;;;;;;2.65;2.22;;;16.30;99.90;;;;;;4908462;29;21053;-80
2021/06/10 04:23:13;;;;;;;2.80;2.60;;;16.50;99.90;;;;;;4895384;29;20505;-79
2021/06/10 04:25:39;;;;;;;2.47;2.28;;;16.60;99.90;;;;;;4849100;29;20470;-79
2021/06/10 04:28:05;;;;;;;2.80;2.60;;;16.70;99.90;;;;;;4868700;29;20449;-80
2021/06/10 04:30:30;;;;;;;2.92;2.72;;;16.80;99.90;;;;;;4869901;29;20483;-80
2021/06/10 04:32:56;;;;;;;2.90;2.60;;;16.90;99.90;;;;;;4913727;29;20419;-82
2021/06/10 04:35:22;;;;;;;4.53;4.13;;;17.00;99.90;;;;;;4869784;29;20427;-84
2021/06/10 04:37:47;;;;;;;3.20;3.00;;;17.10;99.90;;;;;;4899351;29;20421;-81
2021/06/10 04:40:14;;;;;;;2.75;2.55;;;17.30;99.90;;;;;;4863498;29;20548;-79
2021/06/10 04:42:39;;;;;;;3.22;2.97;;;17.40;99.90;;;;;;4882423;29;20434;-79
2021/06/10 04:45:06;;;;;;;3.28;2.97;;;17.60;99.90;;;;;;4906849;29;20414;-80
2021/06/10 04:47:31;;;;;;;2.80;2.50;;;17.70;99.90;;;;;;4903583;29;20419;-81
2021/06/10 04:49:57;;;;;;;2.80;2.60;;;17.80;99.90;;;;;;4904961;29;20419;-80
2021/06/10 04:52:23;;;;;;;2.75;2.55;;;17.90;99.90;;;;;;4861261;29;20427;-80
2021/06/10 04:54:49;;;;;;;2.70;2.50;;;18.10;99.90;;;;;;4860671;29;20419;-80
2021/06/10 04:57:14;;;;;;;2.55;2.35;;;18.20;99.90;;;;;;4876148;29;20430;-83
2021/06/10 04:59:40;;;;;;;3.15;2.58;;;18.40;99.90;;;;;;4875669;29;20912;-80
2021/06/10 05:02:06;;;;;;;2.70;2.50;;;18.60;99.90;;;;;;4874076;29;20422;-80
2021/06/10 05:04:32;;;;;;;2.90;2.70;;;18.80;99.90;;;;;;4889375;29;20419;-81
2021/06/10 05:06:57;;;;;;;2.67;2.47;;;18.90;99.90;;;;;;4891284;29;20509;-81
2021/06/10 05:09:23;;;;;;;2.72;2.53;;;18.90;99.90;;;;;;4891818;29;20401;-80
2021/06/10 05:11:49;;;;;;;2.80;2.60;;;19.00;99.90;;;;;;4876735;29;20430;-79
2021/06/10 05:14:16;;;;;;;2.60;2.40;;;19.00;99.90;;;;;;4859676;29;20928;-79
2021/06/10 05:16:41;;;;;;;3.83;2.93;;;19.10;99.90;;;;;;4871037;29;20402;-79
2021/06/10 05:19:07;;;;;;;3.00;2.80;;;19.30;99.90;;;;;;4860089;29;20417;-86
2021/06/10 05:21:33;;;;;;;2.43;2.13;;;19.50;99.90;;;;;;4891159;29;20422;-78
2021/06/10 05:23:58;;;;;;;3.78;3.20;;;19.70;99.90;;;;;;4875442;29;20466;-80
2021/06/10 05:26:24;;;;;;;2.60;2.40;;;20.00;99.90;;;;;;4904101;29;20401;-79
2021/06/10 05:28:50;;;;;;;2.70;2.50;;;20.10;99.90;;;;;;4921724;29;20414;-79
2021/06/10 05:31:16;;;;;;;2.85;2.65;;;20.30;99.90;;;;;;4887275;29;20411;-80
2021/06/10 05:33:42;;;;;;;3.10;2.90;;;20.20;99.90;;;;;;4924334;29;20403;-81
2021/06/10 05:36:07;;;;;;;4.20;2.67;;;20.00;99.90;;;;;;4877286;29;20433;-81
2021/06/10 05:38:33;;;;;;;2.57;2.37;;;19.90;99.90;;;;;;4891744;29;20410;-81
2021/06/10 05:40:59;;;;;;;2.40;2.30;;;19.90;99.90;;;;;;4890701;29;20402;-79
2021/06/10 05:43:25;;;;;;;3.45;2.70;;;20.00;99.90;;;;;;4922787;29;20851;-79
2021/06/10 05:45:51;;;;;;;2.60;2.40;;;20.10;99.90;;;;;;4907177;29;21204;-81
2021/06/10 05:48:17;;;;;;;2.80;2.60;;;20.20;99.90;;;;;;4846277;29;20403;-82
2021/06/10 05:50:45;;;;;;;3.95;2.75;;;20.20;99.90;;;;;;4862518;29;20422;-80
2021/06/10 05:53:11;;;;;;;4.53;3.08;;;20.20;99.90;;;;;;4906032;29;20426;-80
2021/06/10 05:55:37;;;;;;;2.60;2.40;;;20.20;99.90;;;;;;4883047;29;20398;-89
2021/06/10 05:58:03;;;;;;;2.63;2.42;;;20.20;99.90;;;;;;4873772;23;20456;-79
2021/06/10 06:00:29;;;;;;;8.95;3.30;;;20.30;99.90;;;;;;4854418;29;20507;-79
2021/06/10 06:02:55;;;;;;;3.50;2.43;;;20.30;99.90;;;;;;4873908;29;20415;-79
2021/06/10 06:05:21;;;;;;;4.00;2.83;;;20.50;99.90;;;;;;4861149;29;20428;-82
2021/06/10 06:07:48;;;;;;;3.90;3.45;;;20.60;99.90;;;;;;4861281;29;20436;-80
2021/06/10 06:10:14;;;;;;;3.80;3.10;;;20.70;99.90;;;;;;4842064;29;22223;-81
2021/06/10 06:12:41;;;;;;;2.70;2.53;;;20.80;99.90;;;;;;4840926;29;20719;-80
2021/06/10 06:15:08;;;;;;;3.60;2.70;;;20.90;99.90;;;;;;4868170;29;20928;-80
2021/06/10 06:17:34;;;;;;;3.28;2.97;;;21.00;99.90;;;;;;4853762;29;20414;-80
2021/06/10 06:20:00;;;;;;;2.50;2.30;;;21.00;99.90;;;;;;4869276;29;20988;-81
2021/06/10 06:22:26;;;;;;;3.17;2.70;;;21.00;99.90;;;;;;4840106;29;20683;-83
2021/06/10 06:24:52;;;;;;;3.20;2.58;;;21.10;99.90;;;;;;4864681;29;20424;-83
2021/06/10 06:27:18;;;;;;;3.00;2.80;;;21.20;99.90;;;;;;4859582;29;20460;-82
2021/06/10 06:29:44;;;;;;;2.78;2.58;;;21.30;99.90;;;;;;4857922;29;20417;-81
2021/06/10 06:32:09;;;;;;;2.70;2.20;;;21.30;99.90;;;;;;4839558;29;20415;-81
2021/06/10 06:34:35;;;;;;;2.80;2.60;;;21.30;99.90;;;;;;4875370;29;20500;-81
2021/06/10 06:37:01;;;;;;;2.73;2.53;;;21.30;99.90;;;;;;4863523;29;20414;-81
2021/06/10 06:39:26;;;;;;;2.95;2.75;;;21.00;99.90;;;;;;4855323;29;20498;-83
2021/06/10 06:41:52;;;;;;;2.60;2.40;;;21.00;99.90;;;;;;4853289;29;20433;-82
2021/06/10 06:44:18;;;;;;;3.10;2.80;;;20.90;99.90;;;;;;4862396;29;20479;-81
2021/06/10 07:13:53;;;;;;;3.80;3.50;;;20.20;99.90;;;;;;4887980;29;20415;-88
2021/06/10 07:16:18;;;;;;;3.70;3.30;;;19.90;99.90;;;;;;4859682;29;20428;-90
2021/06/10 07:18:50;;;;;;;3.80;3.50;;;19.80;99.90;;;;;;4890549;29;20400;-89
2021/06/10 07:21:17;;;;;;;5.55;3.30;;;19.70;99.90;;;;;;4871773;29;20416;-91
2021/06/10 07:23:44;;;;;;;4.13;3.73;;;19.70;99.90;;;;;;4866964;29;20384;-90
2021/06/10 07:26:10;;;;;;;3.85;3.55;;;19.50;99.90;;;;;;4880869;29;20432;-91
2021/06/10 07:28:35;;;;;;;3.67;3.38;;;19.40;99.90;;;;;;4880598;29;20416;-90
2021/06/10 07:31:01;;;;;;;3.17;2.87;;;19.40;99.90;;;;;;4880605;29;20419;-90
2021/06/10 07:33:27;;;;;;;4.28;3.53;;;19.50;99.90;;;;;;4880801;29;20404;-91
2021/06/10 07:35:54;;;;;;;4.03;3.72;;;19.50;99.90;;;;;;4881603;29;20401;-90
2021/06/10 07:38:20;;;;;;;3.87;3.57;;;19.60;99.90;;;;;;4881683;29;20396;-91
2021/06/10 07:40:46;;;;;;;4.18;3.70;;;19.60;99.90;;;;;;4877975;29;20430;-90
2021/06/10 07:43:12;;;;;;;3.30;3.10;;;19.60;99.90;;;;;;4873276;29;20402;-91
2021/06/10 07:45:37;;;;;;;3.93;3.63;;;19.80;99.90;;;;;;4892198;29;20432;-85
2021/06/10 07:48:04;;;;;;;3.78;3.47;;;20.00;99.90;;;;;;4879844;29;20428;-90
2021/06/10 07:50:30;;;;;;;3.70;3.40;;;20.10;99.90;;;;;;4884118;29;20489;-90
2021/06/10 07:52:56;;;;;;;3.65;3.35;;;20.50;99.90;;;;;;4899832;29;20507;-91
2021/06/10 07:55:22;;;;;;;4.00;3.70;;;20.70;99.90;;;;;;4899055;29;20396;-89
2021/06/10 07:57:49;;;;;;;3.65;3.35;;;20.80;99.90;;;;;;4899450;29;20383;-90
2021/06/10 08:00:15;;;;;;;3.53;3.13;;;21.00;99.90;;;;;;4882981;29;20480;-89
2021/06/10 08:11:19;;;;;;;3.55;3.25;;;22.20;99.90;;;;;;4877091;28;20436;-89
2021/06/10 08:14:57;;;;;;;3.00;2.80;;;22.40;99.90;;;;;;4863189;28;20457;-91
2021/06/10 08:18:41;;;;;;;3.40;3.10;;;22.70;99.90;;;;;;4877827;29;20420;-88
2021/06/10 09:16:37;;;;;;;3.00;2.75;;;28.60;99.90;;;;;;5183031;23;20459;-82
2021/06/10 09:19:13;;;;;;;3.00;2.70;;;28.20;99.90;;;;;;4959726;28;20400;-84
2021/06/10 09:21:42;;;;;;;3.10;2.80;;;28.50;99.90;;;;;;4980353;28;20400;-86
2021/06/10 09:24:33;;;;;;;2.78;2.58;;;28.60;99.90;;;;;;4960357;28;20453;-87
2021/06/10 09:26:59;;;;;;;2.42;2.33;;;29.10;99.90;;;;;;4950621;28;20464;-85
2021/06/10 09:29:44;;;;;;;2.83;2.63;;;29.60;99.90;;;;;;4939821;28;20402;-86
2021/06/10 09:32:30;;;;;;;3.03;2.72;;;29.80;99.90;;;;;;4935675;28;20429;-88
2021/06/10 09:34:57;;;;;;;2.60;2.40;;;30.00;99.90;;;;;;4938484;28;20386;-87
2021/06/10 09:37:34;;;;;;;3.00;2.80;;;30.30;99.90;;;;;;4963836;28;20390;-87
2021/06/10 09:40:02;;;;;;;3.40;2.40;;;30.50;99.90;;;;;;4942969;28;20411;-88
2021/06/10 09:42:33;;;;;;;2.30;2.15;;;30.80;99.90;;;;;;4925668;28;20398;-86
2021/06/10 09:45:00;;;;;;;2.42;2.30;;;31.10;99.90;;;;;;4937797;28;20458;-87
2021/06/10 09:47:51;;;;;;;2.50;2.30;;;31.00;97.70;;;;;;4920703;28;20445;-89
2021/06/10 09:50:42;;;;;;;2.90;2.60;;;31.00;98.50;;;;;;4924212;28;20402;-88
2021/06/10 09:53:10;;;;;;;2.58;2.38;;;31.30;98.20;;;;;;4930184;28;20386;-91
2021/06/10 09:55:45;;;;;;;2.65;2.45;;;31.70;95.10;;;;;;4955132;28;20402;-90
2021/06/10 09:58:14;;;;;;;2.38;2.17;;;31.50;94.00;;;;;;4941947;28;20390;-90
2021/06/10 10:00:52;;;;;;;2.10;2.00;;;31.70;94.70;;;;;;4974748;28;20401;-90
2021/06/10 10:03:24;;;;;;;1.95;1.85;;;32.00;93.20;;;;;;4940594;29;20396;-90
2021/06/10 10:05:51;;;;;;;2.25;2.15;;;32.10;89.70;;;;;;4940203;28;20402;-89
2021/06/10 10:08:17;;;;;;;2.25;2.08;;;32.00;85.70;;;;;;4953547;28;20413;-86
2021/06/10 10:10:43;;;;;;;2.10;2.00;;;32.10;86.10;;;;;;4922294;29;20413;-86
2021/06/10 10:13:13;;;;;;;3.70;2.15;;;32.50;87.80;;;;;;4938442;28;20428;-85
2021/06/10 10:15:39;;;;;;;1.92;1.83;;;32.80;85.70;;;;;;4924094;28;20466;-85
2021/06/10 10:18:05;;;;;;;1.80;1.70;;;32.90;82.50;;;;;;4938953;28;20447;-88
2021/06/10 10:20:32;;;;;;;2.08;1.98;;;32.60;78.90;;;;;;4920801;28;20503;-87
2021/06/10 10:22:58;;;;;;;1.75;1.65;;;32.40;69.80;;;;;;4922108;28;20625;-88
2021/06/10 10:25:24;;;;;;;1.70;1.60;;;32.30;74.80;;;;;;4916203;28;20428;-88
2021/06/10 10:27:52;;;;;;;1.73;1.63;;;32.30;71.60;;;;;;4926581;28;20421;-90
2021/06/10 10:30:21;;;;;;;1.60;1.50;;;32.50;66.60;;;;;;4916016;29;20394;-88
2021/06/10 10:32:47;;;;;;;1.63;1.52;;;32.40;68.70;;;;;;4953554;28;20402;-85
2021/06/10 10:35:22;;;;;;;1.83;1.73;;;32.50;65.10;;;;;;4919234;29;20407;-88
2021/06/10 10:37:51;;;;;;;1.70;1.60;;;32.30;64.80;;;;;;4958023;28;20413;-88
2021/06/10 10:40:25;;;;;;;1.85;1.75;;;32.60;68.30;;;;;;4921684;28;20409;-87
2021/06/10 10:42:52;;;;;;;2.13;2.03;;;33.10;68.50;;;;;;4933177;29;20419;-85
2021/06/10 10:45:24;;;;;;;1.73;1.63;;;33.30;64.30;;;;;;4920350;28;20546;-87
2021/06/10 10:48:01;;;;;;;2.20;2.05;;;33.70;65.80;;;;;;4946650;28;21183;-85
2021/06/10 10:50:37;;;;;;;2.47;2.28;;;33.70;64.10;;;;;;4923365;29;20402;-84
2021/06/10 10:53:04;;;;;;;1.80;1.70;;;33.90;59.70;;;;;;4933356;28;20972;-84
2021/06/10 10:55:32;;;;;;;2.08;1.98;;;33.90;63.20;;;;;;4904588;28;20405;-84
2021/06/10 10:58:08;;;;;;;2.05;1.95;;;34.20;61.80;;;;;;4925677;28;20474;-86
2021/06/10 11:01:01;;;;;;;2.28;2.08;;;33.90;59.40;;;;;;4917655;28;20408;-84
2021/06/10 11:03:40;;;;;;;2.13;1.90;;;32.70;59.40;;;;;;4928274;29;20408;-89
2021/06/10 11:06:21;;;;;;;2.10;2.00;;;32.50;63.40;;;;;;4957726;28;20676;-87
2021/06/10 11:09:11;;;;;;;1.90;1.80;;;32.30;61.80;;;;;;4982519;28;20481;-89
2021/06/10 11:12:10;;;;;;;2.00;1.90;;;32.20;62.30;;;;;;4968281;28;20730;-88
2021/06/10 11:14:45;;;;;;;2.10;2.00;;;32.20;59.80;;;;;;4941033;28;20559;-89
2021/06/10 11:17:21;;;;;;;2.00;1.90;;;32.30;58.80;;;;;;4921916;28;20417;-86
2021/06/10 11:19:51;;;;;;;1.80;1.70;;;32.60;64.70;;;;;;4956544;29;20437;-88
2021/06/10 11:22:33;;;;;;;2.42;2.00;;;32.70;62.20;;;;;;4923722;29;20472;-88
2021/06/10 11:25:03;;;;;;;2.07;1.97;;;32.80;61.50;;;;;;4937395;28;20413;-88
2021/06/10 11:27:32;;;;;;;1.80;1.70;;;32.60;61.10;;;;;;4944737;28;20493;-85
2021/06/10 11:30:09;;;;;;;1.92;1.83;;;32.40;60.90;;;;;;4955358;29;20437;-87
2021/06/10 11:33:00;;;;;;;1.92;1.83;;;32.30;60.10;;;;;;4924358;28;21007;-82
2021/06/10 11:35:31;;;;;;;2.20;2.00;;;32.20;59.00;;;;;;4954072;28;20413;-86
2021/06/10 11:37:57;;;;;;;2.17;1.98;;;31.50;59.80;;;;;;4924371;28;20443;-85
2021/06/10 11:40:23;;;;;;;2.78;2.08;;;31.30;61.50;;;;;;4914590;28;20469;-84
2021/06/10 11:42:49;;;;;;;2.10;1.90;;;31.60;60.90;;;;;;4917885;28;20596;-82
2021/06/10 11:45:18;;;;;;;2.20;2.00;;;31.80;64.40;;;;;;4919799;28;21078;-82
2021/06/10 11:47:44;;;;;;;1.83;1.73;;;32.00;61.80;;;;;;4929809;29;20696;-90
2021/06/10 11:50:30;;;;;;;1.90;1.80;;;32.30;62.60;;;;;;4929596;29;20494;-82
2021/06/10 11:53:07;;;;;;;2.25;2.15;;;33.00;62.10;;;;;;4915579;28;20545;-84
2021/06/10 11:55:34;;;;;;;1.98;1.88;;;33.20;59.90;;;;;;4927674;28;20892;-84
2021/06/10 11:58:01;;;;;;;2.17;2.08;;;33.10;58.00;;;;;;4921352;29;20416;-82
2021/06/10 12:00:28;;;;;;;2.70;2.20;;;32.80;58.80;;;;;;4915996;28;20440;-80
2021/06/10 12:02:56;;;;;;;2.08;1.98;;;33.10;62.60;;;;;;4922506;28;20485;-82
2021/06/10 12:05:22;;;;;;;2.42;2.22;;;33.80;58.80;;;;;;4906482;29;20477;-83
2021/06/10 12:07:51;;;;;;;2.47;2.27;;;34.10;57.30;;;;;;4906043;28;20831;-82
2021/06/10 12:10:18;;;;;;;1.90;1.80;;;34.30;57.10;;;;;;4913454;28;20915;-85
2021/06/10 12:12:47;;;;;;;2.10;2.00;;;34.90;54.90;;;;;;4919088;28;20429;-84
2021/06/10 12:15:26;;;;;;;2.30;2.10;;;35.20;55.10;;;;;;4899150;28;20406;-80
2021/06/10 12:18:02;;;;;;;4.07;2.77;;;35.00;55.80;;;;;;4936823;28;20402;-84
2021/06/10 12:20:30;;;;;;;2.88;2.40;;;35.20;53.60;;;;;;4900421;28;20406;-83
2021/06/10 12:22:55;;;;;;;1.90;1.80;;;34.80;53.60;;;;;;4925315;28;20958;-85
2021/06/10 12:25:26;;;;;;;2.13;2.03;;;34.50;56.00;;;;;;4913751;28;20400;-87
2021/06/10 12:27:53;;;;;;;2.05;1.95;;;34.20;57.70;;;;;;4907971;28;20957;-85
2021/06/10 12:30:38;;;;;;;2.47;2.10;;;34.40;57.30;;;;;;4919997;28;20435;-83
2021/06/10 12:33:14;;;;;;;2.47;2.28;;;35.10;57.00;;;;;;4912929;28;20424;-83
2021/06/10 12:35:42;;;;;;;2.42;2.22;;;35.60;55.20;;;;;;4927678;28;20414;-81
2021/06/10 12:38:07;;;;;;;1.90;1.80;;;36.00;52.30;;;;;;4934902;28;20471;-84
2021/06/10 12:40:43;;;;;;;2.03;1.93;;;36.30;53.40;;;;;;4904709;28;20411;-82
2021/06/10 12:43:19;;;;;;;1.90;1.80;;;36.50;51.80;;;;;;4906916;28;20426;-83
2021/06/10 12:45:45;;;;;;;2.30;2.10;;;36.20;51.20;;;;;;4931808;28;20444;-85
2021/06/10 12:48:24;;;;;;;1.77;1.67;;;35.70;53.50;;;;;;4908150;29;20429;-84
2021/06/10 12:50:50;;;;;;;1.83;1.70;;;36.10;52.70;;;;;;4936193;28;20419;-86
2021/06/10 12:53:16;;;;;;;1.80;1.70;;;36.60;51.30;;;;;;4907314;29;20414;-83
2021/06/10 12:55:44;;;;;;;1.92;1.75;;;37.30;49.80;;;;;;4907876;28;20459;-83
2021/06/10 12:58:16;;;;;;;2.05;1.95;;;37.70;49.20;;;;;;4906206;29;20439;-82
2021/06/10 13:00:42;;;;;;;2.00;1.90;;;38.10;47.30;;;;;;4911129;28;20411;-82
2021/06/10 13:03:09;;;;;;;1.80;1.70;;;37.90;45.10;;;;;;4912299;29;20429;-83
2021/06/10 13:05:35;;;;;;;1.80;1.70;;;36.00;46.80;;;;;;4903694;28;20485;-82
2021/06/10 13:08:01;;;;;;;1.83;1.73;;;35.10;47.10;;;;;;4901347;29;20411;-83
2021/06/10 13:10:43;;;;;;;1.90;1.80;;;34.80;48.30;;;;;;4906770;28;20402;-83
2021/06/10 13:13:13;;;;;;;1.70;1.60;;;34.70;49.80;;;;;;4928295;29;20410;-86
2021/06/10 13:15:43;;;;;;;1.30;1.30;;;34.40;48.20;;;;;;4913951;28;21039;-85
2021/06/10 13:18:10;;;;;;;1.70;1.60;;;34.70;48.60;;;;;;4912787;28;20400;-82
2021/06/10 13:20:54;;;;;;;1.93;1.83;;;35.10;47.50;;;;;;4929549;28;20410;-82
2021/06/10 13:23:28;;;;;;;2.05;1.75;;;35.80;47.40;;;;;;4942835;29;20441;-84
2021/06/10 13:26:15;;;;;;;1.35;1.30;;;36.50;47.20;;;;;;4911423;28;20422;-83
2021/06/10 13:28:53;;;;;;;1.65;1.55;;;36.70;44.30;;;;;;4934666;28;20414;-87
2021/06/10 13:31:33;;;;;;;1.60;1.50;;;36.90;44.50;;;;;;4929626;28;20989;-85
2021/06/10 13:34:11;;;;;;;1.83;1.70;;;37.40;42.90;;;;;;4940280;28;20417;-82
2021/06/10 13:37:10;;;;;;;2.10;2.00;;;37.50;44.80;;;;;;4907878;28;20429;-84
2021/06/10 13:39:30;;;;;;;1.80;1.70;;;37.20;46.90;;;;;;4912971;28;20422;-82
2021/06/10 13:41:56;;;;;;;1.83;1.60;;;36.90;42.00;;;;;;4911066;28;21101;-85
2021/06/10 13:44:23;;;;;;;1.60;1.50;;;37.30;42.40;;;;;;4905737;29;20437;-90
2021/06/10 13:46:56;;;;;;;1.92;1.83;;;37.60;43.20;;;;;;4895075;28;20406;-88
2021/06/10 13:49:22;;;;;;;1.60;1.50;;;38.00;43.70;;;;;;4920813;29;20421;-90
2021/06/10 13:51:51;;;;;;;1.93;1.83;;;38.00;42.10;;;;;;4932023;28;20943;-88
2021/06/10 13:54:16;;;;;;;1.60;1.50;;;38.00;43.80;;;;;;4922560;29;20411;-81
2021/06/10 13:56:42;;;;;;;1.60;1.50;;;38.20;41.90;;;;;;4904127;28;20437;-83
2021/06/10 13:59:08;;;;;;;1.50;1.40;;;37.60;40.50;;;;;;4920244;28;20924;-82
2021/06/10 14:01:33;;;;;;;1.95;1.50;;;37.00;40.80;;;;;;4917970;28;20421;-82
2021/06/10 14:03:59;;;;;;;1.90;1.80;;;35.40;38.10;;;;;;4912073;28;20405;-83
2021/06/10 14:06:25;;;;;;;1.42;1.33;;;35.70;39.80;;;;;;4916906;29;20423;-83
2021/06/10 14:08:50;;;;;;;1.30;1.30;;;36.30;43.00;;;;;;4919371;28;20477;-82
2021/06/10 14:11:17;;;;;;;1.63;1.53;;;37.20;43.00;;;;;;4919398;29;20925;-84
2021/06/10 14:13:44;;;;;;;1.48;1.40;;;37.50;41.90;;;;;;4899060;28;20427;-86
2021/06/10 14:16:16;;;;;;;1.70;1.60;;;38.00;42.40;;;;;;4906773;29;20425;-85
2021/06/10 14:18:42;;;;;;;1.67;1.58;;;38.20;42.80;;;;;;4938617;28;20477;-83
2021/06/10 14:21:08;;;;;;;1.73;1.63;;;38.00;43.20;;;;;;4910316;29;20445;-84
2021/06/10 14:23:34;;;;;;;1.70;1.60;;;36.70;41.40;;;;;;4900036;28;20958;-87
2021/06/10 14:25:59;;;;;;;1.50;1.40;;;37.00;42.60;;;;;;4907600;28;20417;-86
2021/06/10 14:28:25;;;;;;;1.53;1.40;;;37.40;42.10;;;;;;4908994;29;20430;-86